sensor_id;sensor_type;location;lat;lon;timestamp;P1;durP1;ratioP1;P2;durP2;ratioP2
49241;SDS011;35079;52.704;13.814;2023-07-29T00:00:40;6.90;;;5.03;;
49241;SDS011;35079;52.704;13.814;2023-07-29T00:03:07;10.20;;;5.70;;
49241;SDS011;35079;52.704;13.814;2023-07-29T00:05:33;8.27;;;5.57;;
49241;SDS011;35079;52.704;13.814;2023-07-29T00:07:58;11.00;;;6.07;;
49241;SDS011;35079;52.704;13.814;2023-07-29T00:10:24;11.05;;;5.47;;
49241;SDS011;35079;52.704;13.814;2023-07-29T00:12:50;7.28;;;5.78;;
49241;SDS011;35079;52.704;13.814;2023-07-29T00:15:16;11.77;;;6.25;;
49241;SDS011;35079;52.704;13.814;2023-07-29T00:17:42;11.07;;;6.50;;
49241;SDS011;35079;52.704;13.814;2023-07-29T00:20:07;13.82;;;7.40;;
49241;SDS011;35079;52.704;13.814;2023-07-29T00:22:33;15.82;;;6.60;;
49241;SDS011;35079;52.704;13.814;2023-07-29T00:24:59;8.57;;;5.57;;
49241;SDS011;35079;52.704;13.814;2023-07-29T00:27:24;7.68;;;5.90;;
49241;SDS011;35079;52.704;13.814;2023-07-29T00:29:51;8.20;;;6.38;;
49241;SDS011;35079;52.704;13.814;2023-07-29T00:32:17;9.45;;;6.03;;
49241;SDS011;35079;52.704;13.814;2023-07-29T00:34:43;8.30;;;6.10;;
49241;SDS011;35079;52.704;13.814;2023-07-29T00:37:09;8.88;;;6.32;;
49241;SDS011;35079;52.704;13.814;2023-07-29T00:39:35;9.05;;;6.63;;
49241;SDS011;35079;52.704;13.814;2023-07-29T00:42:04;9.63;;;6.80;;
49241;SDS011;35079;52.704;13.814;2023-07-29T00:44:30;8.70;;;7.00;;
49241;SDS011;35079;52.704;13.814;2023-07-29T00:46:59;7.90;;;5.28;;
49241;SDS011;35079;52.704;13.814;2023-07-29T00:49:27;7.78;;;6.35;;
49241;SDS011;35079;52.704;13.814;2023-07-29T00:51:53;8.55;;;6.97;;
49241;SDS011;35079;52.704;13.814;2023-07-29T00:54:19;16.67;;;8.07;;
49241;SDS011;35079;52.704;13.814;2023-07-29T00:56:45;13.55;;;6.18;;
49241;SDS011;35079;52.704;13.814;2023-07-29T00:59:11;11.30;;;7.20;;
49241;SDS011;35079;52.704;13.814;2023-07-29T01:01:37;8.68;;;6.18;;
49241;SDS011;35079;52.704;13.814;2023-07-29T01:04:03;15.40;;;7.40;;
49241;SDS011;35079;52.704;13.814;2023-07-29T01:14:38;15.52;;;7.68;;
49241;SDS011;35079;52.704;13.814;2023-07-29T01:17:13;17.33;;;7.40;;
49241;SDS011;35079;52.704;13.814;2023-07-29T01:22:39;9.15;;;7.15;;
49241;SDS011;35079;52.704;13.814;2023-07-29T01:25:05;7.90;;;6.97;;
49241;SDS011;35079;52.704;13.814;2023-07-29T01:27:31;13.90;;;6.60;;
49241;SDS011;35079;52.704;13.814;2023-07-29T01:29:57;51.40;;;7.20;;
49241;SDS011;35079;52.704;13.814;2023-07-29T01:32:29;10.20;;;6.32;;
49241;SDS011;35079;52.704;13.814;2023-07-29T01:37:42;63.15;;;8.57;;
49241;SDS011;35079;52.704;13.814;2023-07-29T01:40:13;94.40;;;7.97;;
49241;SDS011;35079;52.704;13.814;2023-07-29T01:42:39;43.35;;;7.40;;
49241;SDS011;35079;52.704;13.814;2023-07-29T01:45:04;15.48;;;7.28;;
49241;SDS011;35079;52.704;13.814;2023-07-29T01:47:30;36.90;;;7.97;;
49241;SDS011;35079;52.704;13.814;2023-07-29T01:49:56;83.38;;;10.65;;
49241;SDS011;35079;52.704;13.814;2023-07-29T01:52:22;84.60;;;10.18;;
49241;SDS011;35079;52.704;13.814;2023-07-29T01:54:47;82.38;;;10.70;;
49241;SDS011;35079;52.704;13.814;2023-07-29T01:57:13;37.15;;;8.98;;
49241;SDS011;35079;52.704;13.814;2023-07-29T01:59:39;48.50;;;9.85;;
49241;SDS011;35079;52.704;13.814;2023-07-29T02:02:04;30.63;;;9.38;;
49241;SDS011;35079;52.704;13.814;2023-07-29T02:04:30;23.30;;;8.07;;
49241;SDS011;35079;52.704;13.814;2023-07-29T02:06:55;22.67;;;9.00;;
49241;SDS011;35079;52.704;13.814;2023-07-29T02:09:21;52.15;;;9.73;;
49241;SDS011;35079;52.704;13.814;2023-07-29T02:11:47;16.63;;;8.23;;
49241;SDS011;35079;52.704;13.814;2023-07-29T02:14:12;32.30;;;9.13;;
49241;SDS011;35079;52.704;13.814;2023-07-29T02:16:38;44.95;;;9.65;;
49241;SDS011;35079;52.704;13.814;2023-07-29T02:19:04;23.48;;;9.07;;
49241;SDS011;35079;52.704;13.814;2023-07-29T02:21:29;43.53;;;10.63;;
49241;SDS011;35079;52.704;13.814;2023-07-29T02:23:55;46.97;;;10.40;;
49241;SDS011;35079;52.704;13.814;2023-07-29T02:26:21;50.40;;;11.23;;
49241;SDS011;35079;52.704;13.814;2023-07-29T02:28:47;60.58;;;11.80;;
49241;SDS011;35079;52.704;13.814;2023-07-29T02:31:31;33.22;;;10.95;;
49241;SDS011;35079;52.704;13.814;2023-07-29T02:33:57;174.60;;;14.45;;
49241;SDS011;35079;52.704;13.814;2023-07-29T02:36:23;23.38;;;10.13;;
49241;SDS011;35079;52.704;13.814;2023-07-29T02:38:48;119.15;;;11.95;;
49241;SDS011;35079;52.704;13.814;2023-07-29T02:41:14;23.35;;;10.75;;
49241;SDS011;35079;52.704;13.814;2023-07-29T02:43:41;23.27;;;10.20;;
49241;SDS011;35079;52.704;13.814;2023-07-29T02:46:13;18.15;;;10.05;;
49241;SDS011;35079;52.704;13.814;2023-07-29T02:48:38;26.90;;;11.15;;
49241;SDS011;35079;52.704;13.814;2023-07-29T02:51:04;13.07;;;10.27;;
49241;SDS011;35079;52.704;13.814;2023-07-29T02:53:29;14.07;;;10.27;;
49241;SDS011;35079;52.704;13.814;2023-07-29T02:55:55;17.80;;;10.45;;
49241;SDS011;35079;52.704;13.814;2023-07-29T02:58:21;35.15;;;10.52;;
49241;SDS011;35079;52.704;13.814;2023-07-29T03:00:46;36.00;;;11.60;;
49241;SDS011;35079;52.704;13.814;2023-07-29T03:03:13;14.35;;;9.48;;
49241;SDS011;35079;52.704;13.814;2023-07-29T03:05:39;24.23;;;9.20;;
49241;SDS011;35079;52.704;13.814;2023-07-29T03:08:05;11.93;;;8.93;;
49241;SDS011;35079;52.704;13.814;2023-07-29T03:10:30;13.00;;;8.52;;
49241;SDS011;35079;52.704;13.814;2023-07-29T03:12:56;10.88;;;8.07;;
49241;SDS011;35079;52.704;13.814;2023-07-29T03:15:26;19.85;;;9.80;;
49241;SDS011;35079;52.704;13.814;2023-07-29T03:17:52;34.90;;;10.50;;
49241;SDS011;35079;52.704;13.814;2023-07-29T03:20:18;14.88;;;8.18;;
49241;SDS011;35079;52.704;13.814;2023-07-29T03:22:44;17.48;;;8.55;;
49241;SDS011;35079;52.704;13.814;2023-07-29T03:25:10;10.77;;;7.32;;
49241;SDS011;35079;52.704;13.814;2023-07-29T03:27:36;12.23;;;7.65;;
49241;SDS011;35079;52.704;13.814;2023-07-29T03:30:05;8.45;;;7.03;;
49241;SDS011;35079;52.704;13.814;2023-07-29T03:32:32;9.38;;;7.72;;
49241;SDS011;35079;52.704;13.814;2023-07-29T03:34:57;9.35;;;7.13;;
49241;SDS011;35079;52.704;13.814;2023-07-29T03:37:23;11.63;;;8.15;;
49241;SDS011;35079;52.704;13.814;2023-07-29T03:39:49;18.80;;;7.93;;
49241;SDS011;35079;52.704;13.814;2023-07-29T03:42:17;13.25;;;8.90;;
49241;SDS011;35079;52.704;13.814;2023-07-29T03:44:42;10.00;;;8.18;;
49241;SDS011;35079;52.704;13.814;2023-07-29T03:47:08;10.65;;;7.97;;
49241;SDS011;35079;52.704;13.814;2023-07-29T03:49:33;9.52;;;7.60;;
49241;SDS011;35079;52.704;13.814;2023-07-29T03:51:59;7.97;;;7.18;;
49241;SDS011;35079;52.704;13.814;2023-07-29T03:54:25;8.68;;;7.15;;
49241;SDS011;35079;52.704;13.814;2023-07-29T03:56:51;11.60;;;8.80;;
49241;SDS011;35079;52.704;13.814;2023-07-29T03:59:16;12.23;;;7.10;;
49241;SDS011;35079;52.704;13.814;2023-07-29T04:01:42;12.13;;;7.55;;
49241;SDS011;35079;52.704;13.814;2023-07-29T04:04:08;9.77;;;6.72;;
49241;SDS011;35079;52.704;13.814;2023-07-29T04:06:33;8.13;;;6.95;;
49241;SDS011;35079;52.704;13.814;2023-07-29T04:08:59;10.88;;;7.10;;
49241;SDS011;35079;52.704;13.814;2023-07-29T04:11:25;9.48;;;7.05;;
49241;SDS011;35079;52.704;13.814;2023-07-29T04:13:51;9.88;;;6.97;;
49241;SDS011;35079;52.704;13.814;2023-07-29T04:16:16;11.23;;;6.45;;
49241;SDS011;35079;52.704;13.814;2023-07-29T04:18:42;7.30;;;6.60;;
49241;SDS011;35079;52.704;13.814;2023-07-29T04:21:08;8.65;;;6.72;;
49241;SDS011;35079;52.704;13.814;2023-07-29T04:23:34;6.60;;;6.00;;
49241;SDS011;35079;52.704;13.814;2023-07-29T04:26:00;7.32;;;6.15;;
49241;SDS011;35079;52.704;13.814;2023-07-29T04:28:26;8.48;;;6.72;;
49241;SDS011;35079;52.704;13.814;2023-07-29T04:30:51;7.60;;;6.78;;
49241;SDS011;35079;52.704;13.814;2023-07-29T04:33:17;8.13;;;6.93;;
49241;SDS011;35079;52.704;13.814;2023-07-29T04:35:42;9.35;;;6.75;;
49241;SDS011;35079;52.704;13.814;2023-07-29T04:38:08;8.63;;;7.10;;
49241;SDS011;35079;52.704;13.814;2023-07-29T04:40:33;8.52;;;6.90;;
49241;SDS011;35079;52.704;13.814;2023-07-29T04:43:02;7.80;;;6.82;;
49241;SDS011;35079;52.704;13.814;2023-07-29T04:45:28;7.55;;;6.85;;
49241;SDS011;35079;52.704;13.814;2023-07-29T04:47:55;10.32;;;6.72;;
49241;SDS011;35079;52.704;13.814;2023-07-29T04:50:21;9.15;;;6.40;;
49241;SDS011;35079;52.704;13.814;2023-07-29T04:52:46;7.20;;;6.47;;
49241;SDS011;35079;52.704;13.814;2023-07-29T04:55:12;7.93;;;6.45;;
49241;SDS011;35079;52.704;13.814;2023-07-29T04:57:38;12.50;;;7.18;;
49241;SDS011;35079;52.704;13.814;2023-07-29T05:00:03;7.78;;;6.70;;
49241;SDS011;35079;52.704;13.814;2023-07-29T05:02:29;8.52;;;6.93;;
49241;SDS011;35079;52.704;13.814;2023-07-29T05:04:55;7.22;;;6.53;;
49241;SDS011;35079;52.704;13.814;2023-07-29T05:07:20;7.63;;;6.50;;
49241;SDS011;35079;52.704;13.814;2023-07-29T05:09:47;8.95;;;6.63;;
49241;SDS011;35079;52.704;13.814;2023-07-29T05:12:13;9.00;;;6.55;;
49241;SDS011;35079;52.704;13.814;2023-07-29T05:14:38;7.22;;;6.53;;
49241;SDS011;35079;52.704;13.814;2023-07-29T05:17:04;8.15;;;6.10;;
49241;SDS011;35079;52.704;13.814;2023-07-29T05:19:30;8.25;;;6.60;;
49241;SDS011;35079;52.704;13.814;2023-07-29T05:21:56;8.60;;;5.88;;
49241;SDS011;35079;52.704;13.814;2023-07-29T05:24:22;6.70;;;5.53;;
49241;SDS011;35079;52.704;13.814;2023-07-29T05:26:48;7.07;;;6.00;;
49241;SDS011;35079;52.704;13.814;2023-07-29T05:29:14;6.75;;;6.15;;
49241;SDS011;35079;52.704;13.814;2023-07-29T05:31:39;10.50;;;6.55;;
49241;SDS011;35079;52.704;13.814;2023-07-29T05:34:05;6.85;;;5.82;;
49241;SDS011;35079;52.704;13.814;2023-07-29T05:36:31;9.32;;;6.88;;
49241;SDS011;35079;52.704;13.814;2023-07-29T05:38:56;7.28;;;6.47;;
49241;SDS011;35079;52.704;13.814;2023-07-29T05:41:22;12.50;;;6.60;;
49241;SDS011;35079;52.704;13.814;2023-07-29T05:43:48;8.10;;;6.55;;
49241;SDS011;35079;52.704;13.814;2023-07-29T05:46:13;8.15;;;7.30;;
49241;SDS011;35079;52.704;13.814;2023-07-29T05:48:39;8.02;;;7.18;;
49241;SDS011;35079;52.704;13.814;2023-07-29T05:51:05;8.85;;;7.13;;
49241;SDS011;35079;52.704;13.814;2023-07-29T05:53:30;7.20;;;6.47;;
49241;SDS011;35079;52.704;13.814;2023-07-29T05:55:56;8.90;;;7.40;;
49241;SDS011;35079;52.704;13.814;2023-07-29T05:58:22;6.93;;;5.88;;
49241;SDS011;35079;52.704;13.814;2023-07-29T06:00:47;6.57;;;5.97;;
49241;SDS011;35079;52.704;13.814;2023-07-29T06:03:13;6.57;;;5.88;;
49241;SDS011;35079;52.704;13.814;2023-07-29T06:05:39;8.18;;;6.03;;
49241;SDS011;35079;52.704;13.814;2023-07-29T06:08:04;5.93;;;5.43;;
49241;SDS011;35079;52.704;13.814;2023-07-29T06:10:30;7.10;;;6.03;;
49241;SDS011;35079;52.704;13.814;2023-07-29T06:12:56;9.10;;;5.70;;
49241;SDS011;35079;52.704;13.814;2023-07-29T06:15:21;8.30;;;6.40;;
49241;SDS011;35079;52.704;13.814;2023-07-29T06:17:48;11.20;;;6.35;;
49241;SDS011;35079;52.704;13.814;2023-07-29T06:20:14;9.45;;;7.22;;
49241;SDS011;35079;52.704;13.814;2023-07-29T06:22:40;9.32;;;8.18;;
49241;SDS011;35079;52.704;13.814;2023-07-29T06:25:07;10.82;;;7.25;;
49241;SDS011;35079;52.704;13.814;2023-07-29T06:27:33;8.63;;;6.90;;
49241;SDS011;35079;52.704;13.814;2023-07-29T06:29:58;7.40;;;6.70;;
49241;SDS011;35079;52.704;13.814;2023-07-29T06:32:24;8.40;;;6.95;;
49241;SDS011;35079;52.704;13.814;2023-07-29T06:34:50;8.80;;;7.82;;
49241;SDS011;35079;52.704;13.814;2023-07-29T06:37:17;7.70;;;6.72;;
49241;SDS011;35079;52.704;13.814;2023-07-29T06:39:42;9.88;;;7.00;;
49241;SDS011;35079;52.704;13.814;2023-07-29T06:42:08;8.73;;;6.72;;
49241;SDS011;35079;52.704;13.814;2023-07-29T06:44:33;7.13;;;6.43;;
49241;SDS011;35079;52.704;13.814;2023-07-29T06:46:59;8.23;;;7.05;;
49241;SDS011;35079;52.704;13.814;2023-07-29T06:49:25;7.40;;;6.70;;
49241;SDS011;35079;52.704;13.814;2023-07-29T06:51:50;7.25;;;6.38;;
49241;SDS011;35079;52.704;13.814;2023-07-29T06:54:16;7.05;;;6.45;;
49241;SDS011;35079;52.704;13.814;2023-07-29T06:56:42;7.72;;;6.97;;
49241;SDS011;35079;52.704;13.814;2023-07-29T06:59:08;7.80;;;6.20;;
49241;SDS011;35079;52.704;13.814;2023-07-29T07:01:34;7.55;;;6.30;;
49241;SDS011;35079;52.704;13.814;2023-07-29T07:03:59;7.47;;;5.60;;
49241;SDS011;35079;52.704;13.814;2023-07-29T07:06:25;7.38;;;6.47;;
49241;SDS011;35079;52.704;13.814;2023-07-29T07:08:51;7.90;;;6.43;;
49241;SDS011;35079;52.704;13.814;2023-07-29T07:11:17;8.25;;;5.50;;
49241;SDS011;35079;52.704;13.814;2023-07-29T07:13:43;6.97;;;6.32;;
49241;SDS011;35079;52.704;13.814;2023-07-29T07:16:09;6.18;;;5.57;;
49241;SDS011;35079;52.704;13.814;2023-07-29T07:18:34;6.00;;;5.40;;
49241;SDS011;35079;52.704;13.814;2023-07-29T07:21:00;5.85;;;5.35;;
49241;SDS011;35079;52.704;13.814;2023-07-29T07:23:26;7.00;;;5.82;;
49241;SDS011;35079;52.704;13.814;2023-07-29T07:25:51;6.05;;;5.45;;
49241;SDS011;35079;52.704;13.814;2023-07-29T07:28:17;7.53;;;5.15;;
49241;SDS011;35079;52.704;13.814;2023-07-29T07:30:42;6.68;;;5.97;;
49241;SDS011;35079;52.704;13.814;2023-07-29T07:33:08;6.15;;;5.55;;
49241;SDS011;35079;52.704;13.814;2023-07-29T07:35:34;6.28;;;5.68;;
49241;SDS011;35079;52.704;13.814;2023-07-29T07:38:00;8.93;;;5.70;;
49241;SDS011;35079;52.704;13.814;2023-07-29T07:40:28;6.18;;;5.63;;
49241;SDS011;35079;52.704;13.814;2023-07-29T07:42:55;8.02;;;5.28;;
49241;SDS011;35079;52.704;13.814;2023-07-29T07:45:21;6.70;;;5.72;;
49241;SDS011;35079;52.704;13.814;2023-07-29T07:47:46;7.22;;;5.72;;
49241;SDS011;35079;52.704;13.814;2023-07-29T07:50:13;6.63;;;5.13;;
49241;SDS011;35079;52.704;13.814;2023-07-29T07:52:39;6.78;;;5.85;;
49241;SDS011;35079;52.704;13.814;2023-07-29T07:55:05;5.45;;;4.93;;
49241;SDS011;35079;52.704;13.814;2023-07-29T07:57:31;5.97;;;5.07;;
49241;SDS011;35079;52.704;13.814;2023-07-29T07:59:56;5.80;;;4.78;;
49241;SDS011;35079;52.704;13.814;2023-07-29T08:02:22;5.93;;;4.65;;
49241;SDS011;35079;52.704;13.814;2023-07-29T08:04:48;5.63;;;4.93;;
49241;SDS011;35079;52.704;13.814;2023-07-29T08:07:13;5.32;;;4.82;;
49241;SDS011;35079;52.704;13.814;2023-07-29T08:09:39;4.72;;;4.22;;
49241;SDS011;35079;52.704;13.814;2023-07-29T08:12:04;6.68;;;4.38;;
49241;SDS011;35079;52.704;13.814;2023-07-29T08:14:31;4.75;;;4.25;;
49241;SDS011;35079;52.704;13.814;2023-07-29T08:16:56;5.00;;;4.57;;
49241;SDS011;35079;52.704;13.814;2023-07-29T08:19:22;5.18;;;4.15;;
49241;SDS011;35079;52.704;13.814;2023-07-29T08:21:48;7.80;;;4.47;;
49241;SDS011;35079;52.704;13.814;2023-07-29T08:24:13;5.78;;;4.78;;
49241;SDS011;35079;52.704;13.814;2023-07-29T08:26:39;5.15;;;4.70;;
49241;SDS011;35079;52.704;13.814;2023-07-29T08:29:04;5.85;;;4.38;;
49241;SDS011;35079;52.704;13.814;2023-07-29T08:31:30;5.60;;;4.80;;
49241;SDS011;35079;52.704;13.814;2023-07-29T08:33:58;6.25;;;4.57;;
49241;SDS011;35079;52.704;13.814;2023-07-29T08:36:24;4.40;;;4.10;;
49241;SDS011;35079;52.704;13.814;2023-07-29T08:38:50;6.03;;;4.07;;
49241;SDS011;35079;52.704;13.814;2023-07-29T08:43:52;4.72;;;4.20;;
49241;SDS011;35079;52.704;13.814;2023-07-29T08:46:29;3.97;;;3.58;;
49241;SDS011;35079;52.704;13.814;2023-07-29T08:48:55;6.63;;;4.05;;
49241;SDS011;35079;52.704;13.814;2023-07-29T08:51:21;6.28;;;4.20;;
49241;SDS011;35079;52.704;13.814;2023-07-29T08:53:49;3.70;;;3.40;;
49241;SDS011;35079;52.704;13.814;2023-07-29T08:56:15;4.80;;;3.95;;
49241;SDS011;35079;52.704;13.814;2023-07-29T08:58:41;4.63;;;3.70;;
49241;SDS011;35079;52.704;13.814;2023-07-29T09:01:07;5.00;;;3.28;;
49241;SDS011;35079;52.704;13.814;2023-07-29T09:03:33;4.22;;;3.83;;
49241;SDS011;35079;52.704;13.814;2023-07-29T09:05:59;4.38;;;3.38;;
49241;SDS011;35079;52.704;13.814;2023-07-29T09:08:27;6.45;;;3.35;;
49241;SDS011;35079;52.704;13.814;2023-07-29T09:10:53;5.97;;;3.60;;
49241;SDS011;35079;52.704;13.814;2023-07-29T09:13:20;3.78;;;3.42;;
49241;SDS011;35079;52.704;13.814;2023-07-29T09:15:46;3.85;;;3.35;;
49241;SDS011;35079;52.704;13.814;2023-07-29T09:18:15;3.55;;;3.17;;
49241;SDS011;35079;52.704;13.814;2023-07-29T09:20:42;3.30;;;3.05;;
49241;SDS011;35079;52.704;13.814;2023-07-29T09:23:08;4.75;;;3.50;;
49241;SDS011;35079;52.704;13.814;2023-07-29T09:25:35;4.13;;;3.17;;
49241;SDS011;35079;52.704;13.814;2023-07-29T09:28:02;3.88;;;3.20;;
49241;SDS011;35079;52.704;13.814;2023-07-29T09:33:05;3.63;;;3.15;;
49241;SDS011;35079;52.704;13.814;2023-07-29T09:35:32;3.10;;;2.90;;
49241;SDS011;35079;52.704;13.814;2023-07-29T09:37:59;3.35;;;3.10;;
49241;SDS011;35079;52.704;13.814;2023-07-29T09:40:25;3.30;;;3.05;;
49241;SDS011;35079;52.704;13.814;2023-07-29T09:42:52;3.13;;;2.92;;
49241;SDS011;35079;52.704;13.814;2023-07-29T09:45:20;4.53;;;2.40;;
49241;SDS011;35079;52.704;13.814;2023-07-29T09:47:50;6.22;;;3.05;;
49241;SDS011;35079;52.704;13.814;2023-07-29T09:50:16;3.15;;;2.65;;
49241;SDS011;35079;52.704;13.814;2023-07-29T09:52:42;3.30;;;2.92;;
49241;SDS011;35079;52.704;13.814;2023-07-29T09:55:12;4.53;;;3.15;;
49241;SDS011;35079;52.704;13.814;2023-07-29T09:57:39;4.60;;;2.95;;
49241;SDS011;35079;52.704;13.814;2023-07-29T10:00:05;6.50;;;2.75;;
49241;SDS011;35079;52.704;13.814;2023-07-29T10:02:36;3.40;;;3.10;;
49241;SDS011;35079;52.704;13.814;2023-07-29T10:05:03;4.72;;;3.10;;
49241;SDS011;35079;52.704;13.814;2023-07-29T10:07:29;4.93;;;3.22;;
49241;SDS011;35079;52.704;13.814;2023-07-29T10:09:56;2.50;;;2.30;;
49241;SDS011;35079;52.704;13.814;2023-07-29T10:12:24;3.03;;;2.83;;
49241;SDS011;35079;52.704;13.814;2023-07-29T10:14:50;6.85;;;2.75;;
49241;SDS011;35079;52.704;13.814;2023-07-29T10:17:15;4.30;;;2.80;;
49241;SDS011;35079;52.704;13.814;2023-07-29T10:19:41;2.97;;;2.67;;
49241;SDS011;35079;52.704;13.814;2023-07-29T10:22:09;3.70;;;3.00;;
49241;SDS011;35079;52.704;13.814;2023-07-29T10:24:38;3.85;;;2.85;;
49241;SDS011;35079;52.704;13.814;2023-07-29T10:27:06;2.85;;;2.50;;
49241;SDS011;35079;52.704;13.814;2023-07-29T10:29:37;3.25;;;2.95;;
49241;SDS011;35079;52.704;13.814;2023-07-29T10:32:05;2.80;;;2.60;;
49241;SDS011;35079;52.704;13.814;2023-07-29T10:34:32;2.78;;;2.58;;
49241;SDS011;35079;52.704;13.814;2023-07-29T10:37:00;3.38;;;2.80;;
49241;SDS011;35079;52.704;13.814;2023-07-29T10:39:26;4.50;;;2.42;;
49241;SDS011;35079;52.704;13.814;2023-07-29T10:41:59;4.10;;;2.08;;
49241;SDS011;35079;52.704;13.814;2023-07-29T10:47:11;2.80;;;2.13;;
49241;SDS011;35079;52.704;13.814;2023-07-29T10:49:51;3.20;;;2.30;;
49241;SDS011;35079;52.704;13.814;2023-07-29T10:54:53;7.95;;;2.45;;
49241;SDS011;35079;52.704;13.814;2023-07-29T10:57:32;3.35;;;2.28;;
49241;SDS011;35079;52.704;13.814;2023-07-29T11:00:06;2.45;;;2.10;;
49241;SDS011;35079;52.704;13.814;2023-07-29T11:02:33;2.72;;;1.98;;
49241;SDS011;35079;52.704;13.814;2023-07-29T11:05:04;2.40;;;2.20;;
49241;SDS011;35079;52.704;13.814;2023-07-29T11:07:51;2.33;;;2.13;;
49241;SDS011;35079;52.704;13.814;2023-07-29T11:10:16;2.15;;;1.95;;
49241;SDS011;35079;52.704;13.814;2023-07-29T11:12:46;2.10;;;1.95;;
49241;SDS011;35079;52.704;13.814;2023-07-29T11:15:17;2.25;;;1.80;;
49241;SDS011;35079;52.704;13.814;2023-07-29T11:20:14;2.80;;;1.83;;
49241;SDS011;35079;52.704;13.814;2023-07-29T11:22:41;2.22;;;2.00;;
49241;SDS011;35079;52.704;13.814;2023-07-29T11:25:07;3.38;;;2.00;;
49241;SDS011;35079;52.704;13.814;2023-07-29T11:27:34;2.00;;;1.90;;
49241;SDS011;35079;52.704;13.814;2023-07-29T11:30:01;3.15;;;2.17;;
49241;SDS011;35079;52.704;13.814;2023-07-29T11:32:31;2.20;;;2.10;;
49241;SDS011;35079;52.704;13.814;2023-07-29T11:35:01;2.22;;;2.03;;
49241;SDS011;35079;52.704;13.814;2023-07-29T11:37:27;3.72;;;1.90;;
49241;SDS011;35079;52.704;13.814;2023-07-29T11:39:53;2.15;;;2.03;;
49241;SDS011;35079;52.704;13.814;2023-07-29T11:42:19;2.25;;;1.70;;
49241;SDS011;35079;52.704;13.814;2023-07-29T11:44:45;4.00;;;2.00;;
49241;SDS011;35079;52.704;13.814;2023-07-29T11:47:10;3.67;;;2.13;;
49241;SDS011;35079;52.704;13.814;2023-07-29T11:49:38;4.13;;;2.00;;
49241;SDS011;35079;52.704;13.814;2023-07-29T11:52:08;4.10;;;2.28;;
49241;SDS011;35079;52.704;13.814;2023-07-29T11:54:35;14.57;;;1.15;;
49241;SDS011;35079;52.704;13.814;2023-07-29T11:57:03;5.20;;;1.08;;
49241;SDS011;35079;52.704;13.814;2023-07-29T11:59:33;12.88;;;1.35;;
49241;SDS011;35079;52.704;13.814;2023-07-29T12:02:00;12.68;;;1.30;;
49241;SDS011;35079;52.704;13.814;2023-07-29T12:04:27;53.72;;;3.58;;
49241;SDS011;35079;52.704;13.814;2023-07-29T12:06:56;18.35;;;2.55;;
49241;SDS011;35079;52.704;13.814;2023-07-29T12:09:22;16.63;;;2.35;;
49241;SDS011;35079;52.704;13.814;2023-07-29T12:11:48;12.68;;;2.75;;
49241;SDS011;35079;52.704;13.814;2023-07-29T12:14:15;13.90;;;2.80;;
49241;SDS011;35079;52.704;13.814;2023-07-29T12:16:47;14.18;;;2.65;;
49241;SDS011;35079;52.704;13.814;2023-07-29T12:19:14;15.93;;;2.85;;
49241;SDS011;35079;52.704;13.814;2023-07-29T12:21:43;9.35;;;2.10;;
49241;SDS011;35079;52.704;13.814;2023-07-29T12:24:09;11.05;;;1.90;;
49241;SDS011;35079;52.704;13.814;2023-07-29T12:26:41;11.48;;;2.25;;
49241;SDS011;35079;52.704;13.814;2023-07-29T12:29:14;6.28;;;1.80;;
49241;SDS011;35079;52.704;13.814;2023-07-29T12:31:40;5.57;;;1.58;;
49241;SDS011;35079;52.704;13.814;2023-07-29T12:34:06;8.88;;;2.53;;
49241;SDS011;35079;52.704;13.814;2023-07-29T12:36:44;2.65;;;1.38;;
49241;SDS011;35079;52.704;13.814;2023-07-29T12:39:15;4.53;;;1.45;;
49241;SDS011;35079;52.704;13.814;2023-07-29T12:41:42;4.00;;;1.77;;
49241;SDS011;35079;52.704;13.814;2023-07-29T12:44:08;8.23;;;2.08;;
49241;SDS011;35079;52.704;13.814;2023-07-29T12:46:34;9.98;;;2.10;;
49241;SDS011;35079;52.704;13.814;2023-07-29T12:48:59;8.55;;;2.33;;
49241;SDS011;35079;52.704;13.814;2023-07-29T12:51:25;7.70;;;1.60;;
49241;SDS011;35079;52.704;13.814;2023-07-29T12:53:50;11.70;;;2.60;;
49241;SDS011;35079;52.704;13.814;2023-07-29T12:56:16;3.70;;;1.52;;
49241;SDS011;35079;52.704;13.814;2023-07-29T12:58:41;2.95;;;1.77;;
49241;SDS011;35079;52.704;13.814;2023-07-29T13:01:07;3.63;;;1.75;;
49241;SDS011;35079;52.704;13.814;2023-07-29T13:03:34;4.45;;;2.03;;
49241;SDS011;35079;52.704;13.814;2023-07-29T13:05:59;5.53;;;1.90;;
49241;SDS011;35079;52.704;13.814;2023-07-29T13:08:25;2.67;;;1.70;;
49241;SDS011;35079;52.704;13.814;2023-07-29T13:10:50;3.53;;;1.70;;
49241;SDS011;35079;52.704;13.814;2023-07-29T13:13:16;2.97;;;1.55;;
49241;SDS011;35079;52.704;13.814;2023-07-29T13:15:42;3.33;;;1.67;;
49241;SDS011;35079;52.704;13.814;2023-07-29T13:18:07;1.67;;;1.55;;
49241;SDS011;35079;52.704;13.814;2023-07-29T13:20:33;3.88;;;1.80;;
49241;SDS011;35079;52.704;13.814;2023-07-29T13:22:59;3.00;;;1.17;;
49241;SDS011;35079;52.704;13.814;2023-07-29T13:25:25;2.05;;;1.17;;
49241;SDS011;35079;52.704;13.814;2023-07-29T13:27:51;2.80;;;1.42;;
49241;SDS011;35079;52.704;13.814;2023-07-29T13:30:16;1.40;;;1.30;;
49241;SDS011;35079;52.704;13.814;2023-07-29T13:32:42;2.95;;;1.52;;
49241;SDS011;35079;52.704;13.814;2023-07-29T13:35:07;2.08;;;1.40;;
49241;SDS011;35079;52.704;13.814;2023-07-29T13:37:33;1.85;;;1.60;;
49241;SDS011;35079;52.704;13.814;2023-07-29T13:39:58;2.65;;;1.33;;
49241;SDS011;35079;52.704;13.814;2023-07-29T13:42:24;1.40;;;1.27;;
49241;SDS011;35079;52.704;13.814;2023-07-29T13:44:50;1.30;;;1.20;;
49241;SDS011;35079;52.704;13.814;2023-07-29T13:47:15;3.38;;;1.52;;
49241;SDS011;35079;52.704;13.814;2023-07-29T13:49:41;3.55;;;1.17;;
49241;SDS011;35079;52.704;13.814;2023-07-29T13:52:07;1.88;;;1.02;;
49241;SDS011;35079;52.704;13.814;2023-07-29T13:54:32;2.50;;;1.13;;
49241;SDS011;35079;52.704;13.814;2023-07-29T13:56:58;1.55;;;1.20;;
49241;SDS011;35079;52.704;13.814;2023-07-29T13:59:24;1.40;;;1.30;;
49241;SDS011;35079;52.704;13.814;2023-07-29T14:01:49;1.63;;;1.52;;
49241;SDS011;35079;52.704;13.814;2023-07-29T14:04:15;2.38;;;2.13;;
49241;SDS011;35079;52.704;13.814;2023-07-29T14:06:40;3.63;;;2.10;;
49241;SDS011;35079;52.704;13.814;2023-07-29T14:09:06;2.30;;;2.10;;
49241;SDS011;35079;52.704;13.814;2023-07-29T14:11:32;2.28;;;2.08;;
49241;SDS011;35079;52.704;13.814;2023-07-29T14:13:58;2.20;;;2.00;;
49241;SDS011;35079;52.704;13.814;2023-07-29T14:16:24;2.47;;;2.28;;
49241;SDS011;35079;52.704;13.814;2023-07-29T14:18:49;2.10;;;1.95;;
49241;SDS011;35079;52.704;13.814;2023-07-29T14:21:15;2.80;;;2.60;;
49241;SDS011;35079;52.704;13.814;2023-07-29T14:23:40;2.45;;;2.25;;
49241;SDS011;35079;52.704;13.814;2023-07-29T14:26:06;2.50;;;2.30;;
49241;SDS011;35079;52.704;13.814;2023-07-29T14:28:34;2.40;;;2.30;;
49241;SDS011;35079;52.704;13.814;2023-07-29T14:31:00;3.90;;;2.50;;
49241;SDS011;35079;52.704;13.814;2023-07-29T14:33:26;3.30;;;2.47;;
49241;SDS011;35079;52.704;13.814;2023-07-29T14:35:52;3.80;;;2.35;;
49241;SDS011;35079;52.704;13.814;2023-07-29T14:38:18;2.42;;;2.20;;
49241;SDS011;35079;52.704;13.814;2023-07-29T14:40:44;3.17;;;2.55;;
49241;SDS011;35079;52.704;13.814;2023-07-29T14:43:12;4.50;;;2.70;;
49241;SDS011;35079;52.704;13.814;2023-07-29T14:45:38;4.85;;;2.65;;
49241;SDS011;35079;52.704;13.814;2023-07-29T14:48:03;2.78;;;2.58;;
49241;SDS011;35079;52.704;13.814;2023-07-29T14:50:29;3.97;;;2.65;;
49241;SDS011;35079;52.704;13.814;2023-07-29T14:52:55;4.45;;;2.47;;